createdAt,value
2019-02-18T00:08:06.424Z,28.20
2019-02-18T00:23:36.157Z,28.30
2019-02-18T00:26:13.174Z,28.10
2019-02-18T00:31:24.638Z,28.10
2019-02-18T00:39:11.523Z,28.20
2019-02-18T00:47:00.711Z,28.40
2019-02-18T00:52:12.328Z,28.30
2019-02-18T00:54:49.806Z,28.10
2019-02-18T00:57:26.770Z,28.20
2019-02-18T01:05:29.338Z,28.30
2019-02-18T01:10:40.244Z,28.30
2019-02-18T01:15:51.813Z,28.40
2019-02-18T01:23:38.230Z,28.30
2019-02-18T01:31:24.124Z,28.60
2019-02-18T01:36:35.773Z,28.50
2019-02-18T01:39:12.957Z,28.40
2019-02-18T01:41:49.883Z,28.80
2019-02-18T01:44:27.009Z,28.90
2019-02-18T01:47:03.895Z,28.60
2019-02-18T01:49:40.787Z,28.90
2019-02-18T01:54:52.468Z,28.80
2019-02-18T01:57:29.817Z,28.90
2019-02-18T02:00:09.934Z,29.00
2019-02-18T02:02:47.414Z,28.90
2019-02-18T02:05:24.457Z,28.90
2019-02-18T02:08:01.599Z,28.80
2019-02-18T02:10:38.666Z,29.10
2019-02-18T02:13:32.079Z,28.80
2019-02-18T02:16:11.497Z,29.10
2019-02-18T02:18:48.463Z,28.40
2019-02-18T02:24:00.063Z,29.40
2019-02-18T02:26:36.984Z,29.20
2019-02-18T02:29:13.916Z,28.30
2019-02-18T02:31:51.825Z,28.80
2019-02-18T02:34:30.170Z,29.60
2019-02-18T02:37:07.845Z,29.00
2019-02-18T02:39:45.167Z,28.80
2019-02-18T02:42:22.956Z,29.00
2019-02-18T02:45:00.609Z,29.10
2019-02-18T02:50:13.180Z,28.90
2019-02-18T02:52:50.160Z,28.80
2019-02-18T02:55:27.121Z,29.00
2019-02-18T02:58:04.226Z,29.10
2019-02-18T03:03:16.872Z,29.20
2019-02-18T03:05:53.834Z,29.20
2019-02-18T03:08:31.127Z,29.10
2019-02-18T03:11:08.095Z,29.00
2019-02-18T03:13:45.038Z,29.10
2019-02-18T03:16:22.031Z,29.20
2019-02-18T03:18:59.674Z,29.20
2019-02-18T03:24:11.151Z,30.00
2019-02-18T03:26:48.081Z,29.20
2019-02-18T03:30:08.869Z,29.50
2019-02-18T03:32:52.720Z,29.70
2019-02-18T03:35:29.699Z,29.60
2019-02-18T03:38:06.716Z,29.70
2019-02-18T03:43:18.567Z,30.40
2019-02-18T03:45:56.530Z,29.80
2019-02-18T03:48:33.453Z,29.90
2019-02-18T03:51:10.386Z,29.90
2019-02-18T03:53:47.767Z,30.20
2019-02-18T03:56:24.815Z,30.40
2019-02-18T03:59:01.742Z,30.30
2019-02-18T04:01:38.933Z,30.10
2019-02-18T04:04:15.987Z,30.70
2019-02-18T04:06:53.040Z,30.20
2019-02-18T04:09:30.027Z,30.10
2019-02-18T04:12:07.208Z,30.00
2019-02-18T04:14:45.640Z,30.10
2019-02-18T04:17:22.810Z,30.10
2019-02-18T04:20:00.304Z,30.00
2019-02-18T04:22:37.205Z,30.10
2019-02-18T04:25:14.657Z,30.30
2019-02-18T04:27:53.055Z,30.40
2019-02-18T04:30:30.159Z,30.40
2019-02-18T04:33:07.379Z,30.80
2019-02-18T04:38:18.925Z,31.50
2019-02-18T04:40:55.918Z,30.70
2019-02-18T04:43:32.954Z,29.70
2019-02-18T04:46:09.942Z,30.80
2019-02-18T04:48:46.866Z,30.80
2019-02-18T04:51:23.963Z,30.80
2019-02-18T04:54:01.243Z,30.70
2019-02-18T04:56:38.309Z,30.80
2019-02-18T04:59:15.277Z,30.80
2019-02-18T05:01:52.413Z,30.80
2019-02-18T05:04:29.451Z,30.70
2019-02-18T05:07:06.398Z,30.80
2019-02-18T05:12:21.528Z,30.90
2019-02-18T05:14:58.504Z,31.30
2019-02-18T05:17:35.434Z,31.00
2019-02-18T05:20:12.884Z,31.00
2019-02-18T05:22:49.946Z,30.80
2019-02-18T05:25:27.192Z,30.50
2019-02-18T05:30:39.974Z,30.30
2019-02-18T05:33:16.855Z,30.10
2019-02-18T05:35:55.869Z,30.30
2019-02-18T05:38:31.975Z,30.40
2019-02-18T05:41:09.339Z,30.20
2019-02-18T05:43:46.278Z,30.30
2019-02-18T05:46:23.192Z,30.90
2019-02-18T05:51:36.984Z,30.40
2019-02-18T05:54:16.932Z,30.30
2019-02-18T05:56:53.893Z,30.60
2019-02-18T05:59:30.973Z,30.40
2019-02-18T06:02:08.171Z,30.40
2019-02-18T06:04:45.217Z,30.40
2019-02-18T06:09:59.102Z,28.10
2019-02-18T06:12:36.781Z,30.60
2019-02-18T06:18:00.222Z,30.40
2019-02-18T06:20:37.127Z,30.00
2019-02-18T06:23:14.112Z,29.90
2019-02-18T06:25:51.175Z,30.30
2019-02-18T06:28:28.228Z,30.30
2019-02-18T06:31:05.576Z,30.50
2019-02-18T06:33:44.798Z,30.10
2019-02-18T06:36:24.086Z,30.10
2019-02-18T06:39:01.411Z,29.90
2019-02-18T06:41:40.566Z,29.90
2019-02-18T06:44:19.544Z,29.90
2019-02-18T06:47:04.791Z,29.60
2019-02-18T06:49:44.015Z,29.30
2019-02-18T06:52:21.204Z,29.70
2019-02-18T06:54:58.201Z,30.10
2019-02-18T06:57:52.550Z,29.50
2019-02-18T07:00:43.789Z,29.50
2019-02-18T07:03:41.204Z,29.50
2019-02-18T07:06:38.856Z,29.40
2019-02-18T07:09:35.913Z,29.60
2019-02-18T07:12:36.241Z,29.40
2019-02-18T07:15:13.668Z,29.30
2019-02-18T07:17:50.948Z,29.40
2019-02-18T07:20:27.986Z,29.40
2019-02-18T07:23:04.892Z,28.90
2019-02-18T07:25:41.924Z,29.20
2019-02-18T07:28:18.816Z,29.10
2019-02-18T07:30:55.922Z,29.10
2019-02-18T07:33:33.161Z,29.20
2019-02-18T07:36:10.237Z,29.20
2019-02-18T07:38:47.272Z,29.40
2019-02-18T07:41:24.260Z,29.50
2019-02-18T07:44:01.186Z,29.40
2019-02-18T07:46:41.297Z,28.60
2019-02-18T07:49:20.413Z,28.80
2019-02-18T07:51:57.472Z,28.50
2019-02-18T07:54:34.821Z,28.50
2019-02-18T07:57:11.940Z,28.50
2019-02-18T08:02:24.033Z,28.30
2019-02-18T08:05:02.241Z,28.20
2019-02-18T08:07:39.527Z,26.90
2019-02-18T08:10:18.719Z,27.80
2019-02-18T08:12:55.692Z,27.70
2019-02-18T08:15:33.154Z,27.60
2019-02-18T08:18:10.514Z,27.40
2019-02-18T08:23:22.228Z,27.40
2019-02-18T08:25:59.227Z,27.00
2019-02-18T08:28:36.162Z,26.80
2019-02-18T08:38:58.184Z,26.30
2019-02-18T08:41:36.603Z,26.40
2019-02-18T08:44:13.504Z,26.20
2019-02-18T08:46:53.209Z,26.10
2019-02-18T08:57:14.060Z,26.10
2019-02-18T08:59:51.078Z,26.30
2019-02-18T09:02:38.935Z,26.30
2019-02-18T09:05:16.140Z,26.20
2019-02-18T09:07:53.370Z,26.10
2019-02-18T09:10:33.455Z,26.00
2019-02-18T09:13:10.044Z,25.80
2019-02-18T09:15:46.956Z,25.80
2019-02-18T09:18:24.544Z,25.90
2019-02-18T09:21:01.500Z,26.10
2019-02-18T09:23:48.675Z,25.80
2019-02-18T09:26:25.787Z,25.80
2019-02-18T09:29:03.187Z,25.90
2019-02-18T09:31:42.628Z,25.60
2019-02-18T09:34:18.503Z,25.60
2019-02-18T09:36:57.142Z,25.80
2019-02-18T09:42:08.841Z,26.60
2019-02-18T09:44:45.903Z,25.40
2019-02-18T09:47:22.827Z,25.90
2019-02-18T09:50:00.520Z,26.10
2019-02-18T09:52:37.552Z,25.60
2019-02-18T09:55:15.213Z,25.40
2019-02-18T09:57:52.157Z,25.30
2019-02-18T10:00:29.385Z,25.50
2019-02-18T10:03:06.445Z,25.30
2019-02-18T10:10:55.932Z,25.20
2019-02-18T10:16:06.749Z,25.20
2019-02-18T10:18:44.077Z,25.40
2019-02-18T10:21:21.193Z,25.60
2019-02-18T10:23:58.141Z,25.40
2019-02-18T10:26:35.149Z,25.40
2019-02-18T10:29:12.090Z,25.40
2019-02-18T10:31:49.218Z,25.20
2019-02-18T10:34:26.176Z,25.20
2019-02-18T10:37:03.363Z,25.00
2019-02-18T10:39:40.284Z,25.10
2019-02-18T10:42:17.686Z,25.50
2019-02-18T10:56:10.543Z,25.60
2019-02-18T10:58:47.498Z,26.10
2019-02-18T11:01:24.732Z,25.70
2019-02-18T11:04:01.857Z,25.60
2019-02-18T11:09:15.387Z,25.50
2019-02-18T11:11:52.337Z,25.60
2019-02-18T11:14:29.956Z,25.60
2019-02-18T11:17:06.949Z,25.80
2019-02-18T11:19:44.240Z,26.30
2019-02-18T11:22:21.472Z,25.70
2019-02-18T11:24:58.383Z,25.70
2019-02-18T11:27:35.414Z,25.10
2019-02-18T11:30:14.749Z,25.30
2019-02-18T11:32:51.697Z,25.70
2019-02-18T11:35:28.622Z,25.60
2019-02-18T11:38:05.535Z,25.50
2019-02-18T11:40:42.864Z,25.70
2019-02-18T11:43:19.733Z,25.70
2019-02-18T11:45:56.658Z,25.80
2019-02-18T11:48:33.557Z,25.80
2019-02-18T11:51:11.498Z,26.80
2019-02-18T11:53:48.796Z,26.30
2019-02-18T11:56:26.015Z,25.80
2019-02-18T11:59:05.833Z,26.10
2019-02-18T12:01:42.803Z,25.90
2019-02-18T12:04:19.936Z,26.00
2019-02-18T12:06:56.907Z,26.10
2019-02-18T12:09:33.783Z,25.80
2019-02-18T12:12:10.660Z,26.10
2019-02-18T12:14:48.226Z,26.20
2019-02-18T12:17:25.676Z,26.20
2019-02-18T12:20:02.574Z,26.20
2019-02-18T12:22:39.510Z,26.20
2019-02-18T12:25:16.659Z,26.20
2019-02-18T12:27:53.568Z,26.20
2019-02-18T12:30:32.468Z,26.20
2019-02-18T12:33:09.912Z,26.20
2019-02-18T12:35:46.876Z,26.30
2019-02-18T12:38:23.871Z,26.30
2019-02-18T12:41:00.725Z,26.10
2019-02-18T12:43:37.754Z,26.20
2019-02-18T12:46:16.074Z,26.20
2019-02-18T12:48:52.938Z,26.40
2019-02-18T12:51:29.932Z,26.30
2019-02-18T12:54:07.337Z,26.20
2019-02-18T12:56:44.581Z,26.10
2019-02-18T12:59:22.511Z,26.00
2019-02-18T13:01:59.391Z,26.00
2019-02-18T13:04:36.449Z,26.00
2019-02-18T13:07:13.549Z,26.10
2019-02-18T13:09:50.584Z,25.90
2019-02-18T13:12:27.463Z,26.00
2019-02-18T13:15:04.459Z,26.00
2019-02-18T13:17:42.728Z,26.00
2019-02-18T13:20:20.827Z,25.90
2019-02-18T13:22:57.737Z,25.90
2019-02-18T13:25:37.203Z,26.00
2019-02-18T13:28:16.538Z,26.00
2019-02-18T13:30:53.487Z,26.00
2019-02-18T13:33:30.554Z,26.00
2019-02-18T13:36:08.474Z,26.10
2019-02-18T13:38:45.612Z,25.90
2019-02-18T13:41:23.940Z,25.90
2019-02-18T13:44:01.129Z,25.80
2019-02-18T13:46:38.372Z,25.80
2019-02-18T13:49:15.487Z,25.80
2019-02-18T13:51:56.512Z,25.90
2019-02-18T13:54:30.732Z,25.90
2019-02-18T13:57:09.909Z,26.00
2019-02-18T13:59:45.660Z,25.90
2019-02-18T14:02:23.223Z,25.90
2019-02-18T14:05:00.302Z,25.90
2019-02-18T14:07:37.308Z,25.80
2019-02-18T14:10:14.827Z,25.80
2019-02-18T14:12:51.764Z,25.80
2019-02-18T14:15:29.062Z,25.70
2019-02-18T14:18:05.968Z,25.60
2019-02-18T14:20:42.850Z,25.60
2019-02-18T14:23:19.970Z,25.70
2019-02-18T14:25:56.940Z,25.60
2019-02-18T14:28:35.714Z,25.60
2019-02-18T14:31:12.711Z,25.60
2019-02-18T14:33:49.764Z,25.60
2019-02-18T14:36:26.732Z,25.60
2019-02-18T14:39:03.957Z,25.50
2019-02-18T14:41:41.169Z,25.50
2019-02-18T14:44:18.099Z,25.50
2019-02-18T14:46:55.023Z,25.40
2019-02-18T14:49:32.193Z,25.40
2019-02-18T14:52:09.305Z,25.30
2019-02-18T14:54:47.060Z,25.40
2019-02-18T14:57:23.967Z,25.40
2019-02-18T15:00:00.949Z,25.30
2019-02-18T15:02:37.827Z,25.30
2019-02-18T15:05:14.761Z,25.30
2019-02-18T15:07:51.903Z,25.30
2019-02-18T15:10:29.011Z,25.20
2019-02-18T15:13:05.872Z,25.40
2019-02-18T15:15:42.838Z,25.20
2019-02-18T15:18:19.795Z,25.30
2019-02-18T15:20:56.674Z,25.40
2019-02-18T15:23:33.779Z,25.40
2019-02-18T15:26:11.209Z,25.40
2019-02-18T15:28:48.200Z,25.50
2019-02-18T15:31:25.299Z,25.40
2019-02-18T15:34:02.370Z,25.30
2019-02-18T15:36:40.619Z,25.30
2019-02-18T15:39:17.737Z,25.30
2019-02-18T15:41:54.771Z,25.20
2019-02-18T15:44:32.215Z,25.20
2019-02-18T15:47:09.202Z,25.10
2019-02-18T15:49:46.371Z,25.10
2019-02-18T15:52:23.421Z,25.00
2019-02-18T15:55:00.631Z,25.10
2019-02-18T15:57:37.747Z,25.10
2019-02-18T16:00:19.670Z,25.00
2019-02-18T16:02:57.341Z,25.10
2019-02-18T16:05:34.377Z,25.20
2019-02-18T16:08:11.400Z,25.20
2019-02-18T16:10:48.284Z,25.10
2019-02-18T16:13:25.271Z,25.30
2019-02-18T16:16:02.228Z,25.20
2019-02-18T16:18:39.180Z,25.20
2019-02-18T16:21:16.219Z,25.10
2019-02-18T16:23:53.491Z,25.10
2019-02-18T16:26:30.800Z,25.20
2019-02-18T16:29:07.896Z,25.10
2019-02-18T16:31:45.257Z,25.20
2019-02-18T16:34:22.362Z,25.20
2019-02-18T16:36:59.328Z,25.20
2019-02-18T16:39:36.218Z,25.30
2019-02-18T16:42:13.501Z,25.30
2019-02-18T16:44:50.436Z,25.30
2019-02-18T16:47:27.391Z,25.20
2019-02-18T16:50:04.422Z,25.10
2019-02-18T16:52:41.607Z,25.00
2019-02-18T16:55:19.102Z,24.90
2019-02-18T16:57:56.354Z,24.90
2019-02-18T17:00:39.228Z,24.80
2019-02-18T17:03:16.138Z,24.70
2019-02-18T17:05:53.480Z,24.70
2019-02-18T17:08:30.487Z,24.50
2019-02-18T17:11:07.535Z,24.50
2019-02-18T17:13:44.450Z,24.50
2019-02-18T17:16:21.725Z,24.50
2019-02-18T17:18:58.655Z,24.40
2019-02-18T17:21:35.761Z,24.50
2019-02-18T17:24:12.897Z,24.50
2019-02-18T17:26:50.088Z,24.40
2019-02-18T17:29:27.011Z,23.80
2019-02-18T17:32:03.977Z,24.40
2019-02-18T17:34:40.944Z,24.40
2019-02-18T17:37:17.949Z,24.40
2019-02-18T17:39:54.890Z,24.50
2019-02-18T17:42:31.869Z,24.50
2019-02-18T17:45:09.246Z,24.50
2019-02-18T17:47:47.530Z,24.50
2019-02-18T17:50:24.505Z,24.50
2019-02-18T17:53:01.585Z,24.50
2019-02-18T17:55:38.866Z,24.50
2019-02-18T17:58:15.874Z,24.40
2019-02-18T18:04:16.427Z,24.20
2019-02-18T18:06:53.486Z,24.10
2019-02-18T18:09:30.492Z,23.80
2019-02-18T18:12:07.459Z,24.20
2019-02-18T18:14:44.522Z,24.20
2019-02-18T18:17:21.858Z,24.20
2019-02-18T18:19:58.930Z,24.10
2019-02-18T18:22:35.782Z,24.10
2019-02-18T18:25:13.283Z,24.50
2019-02-18T18:27:50.255Z,24.10
2019-02-18T18:30:27.643Z,24.20
2019-02-18T18:33:04.669Z,24.20
2019-02-18T18:35:41.932Z,24.20
2019-02-18T18:38:18.848Z,24.20
2019-02-18T18:40:55.760Z,24.20
2019-02-18T18:43:34.128Z,24.10
2019-02-18T18:46:10.756Z,24.20
2019-02-18T18:48:47.629Z,24.20
2019-02-18T18:51:24.635Z,24.20
2019-02-18T18:54:01.825Z,24.20
2019-02-18T18:56:38.854Z,24.30
2019-02-18T18:59:15.855Z,24.20
2019-02-18T19:01:53.061Z,24.00
2019-02-18T19:04:29.913Z,24.20
2019-02-18T19:07:06.900Z,24.10
2019-02-18T19:09:43.824Z,24.10
2019-02-18T19:12:21.121Z,24.10
2019-02-18T19:14:58.199Z,24.10
2019-02-18T19:20:11.545Z,24.20
2019-02-18T19:22:48.242Z,24.20
2019-02-18T19:25:25.110Z,24.20
2019-02-18T19:28:02.088Z,24.20
2019-02-18T19:30:39.272Z,24.00
2019-02-18T19:33:17.285Z,24.10
2019-02-18T19:35:54.209Z,24.10
2019-02-18T19:38:31.170Z,24.10
2019-02-18T19:41:08.233Z,24.20
2019-02-18T19:43:50.202Z,24.00
2019-02-18T19:46:23.267Z,23.90
2019-02-18T19:49:00.512Z,24.10
2019-02-18T19:51:37.640Z,24.70
2019-02-18T19:54:14.593Z,24.50
2019-02-18T19:56:51.648Z,24.00
2019-02-18T19:59:28.551Z,24.20
2019-02-18T20:02:05.666Z,24.40
2019-02-18T20:04:42.645Z,24.00
2019-02-18T20:07:19.888Z,24.40
2019-02-18T20:09:56.970Z,24.20
2019-02-18T20:12:36.547Z,24.10
2019-02-18T20:15:14.082Z,24.10
2019-02-18T20:17:51.146Z,24.00
2019-02-18T20:20:28.070Z,24.20
2019-02-18T20:23:04.992Z,24.00
2019-02-18T20:25:41.968Z,24.10
2019-02-18T20:28:18.878Z,24.10
2019-02-18T20:30:55.959Z,24.20
2019-02-18T20:33:32.844Z,24.20
2019-02-18T20:36:10.199Z,24.10
2019-02-18T20:38:48.636Z,24.20
2019-02-18T20:41:25.712Z,24.10
2019-02-18T20:44:07.541Z,24.30
2019-02-18T20:46:40.656Z,24.30
2019-02-18T20:49:17.542Z,24.20
2019-02-18T20:51:54.664Z,24.20
2019-02-18T20:54:31.616Z,24.00
2019-02-18T20:57:08.543Z,24.10
2019-02-18T20:59:45.432Z,24.20
2019-02-18T21:02:22.679Z,24.20
2019-02-18T21:05:00.431Z,24.40
2019-02-18T21:07:37.613Z,24.30
2019-02-18T21:10:15.393Z,24.30
2019-02-18T21:12:52.680Z,24.80
2019-02-18T21:15:29.931Z,24.30
2019-02-18T21:18:06.929Z,24.30
2019-02-18T21:20:43.826Z,24.30
2019-02-18T21:23:20.869Z,24.30
2019-02-18T21:25:57.788Z,24.40
2019-02-18T21:28:34.766Z,24.50
2019-02-18T21:31:11.914Z,24.60
2019-02-18T21:33:48.841Z,25.00
2019-02-18T21:36:25.877Z,24.50
2019-02-18T21:41:37.504Z,24.80
2019-02-18T21:44:14.706Z,25.50
2019-02-18T21:46:51.677Z,25.40
2019-02-18T21:49:28.859Z,25.10
2019-02-18T21:52:05.847Z,25.20
2019-02-18T21:54:42.895Z,25.20
2019-02-18T21:57:20.429Z,25.20
2019-02-18T21:59:57.411Z,25.30
2019-02-18T22:02:34.705Z,25.40
2019-02-18T22:05:12.018Z,25.50
2019-02-18T22:07:49.502Z,25.60
2019-02-18T22:10:26.814Z,25.80
2019-02-18T22:13:03.842Z,25.90
2019-02-18T22:15:40.726Z,26.10
2019-02-18T22:18:17.693Z,26.00
2019-02-18T22:20:54.738Z,26.10
2019-02-18T22:23:31.804Z,26.20
2019-02-18T22:26:09.119Z,26.20
2019-02-18T22:28:46.025Z,26.20
2019-02-18T22:31:23.004Z,26.30
2019-02-18T22:33:59.945Z,26.40
2019-02-18T22:36:37.452Z,26.60
2019-02-18T22:39:15.215Z,26.60
2019-02-18T22:41:52.245Z,26.70
2019-02-18T22:44:29.272Z,26.80
2019-02-18T22:47:06.209Z,26.90
2019-02-18T22:49:43.150Z,27.10
2019-02-18T22:52:20.437Z,27.20
2019-02-18T22:54:57.688Z,27.20
2019-02-18T22:57:34.783Z,27.40
2019-02-18T23:02:49.595Z,27.60
2019-02-18T23:05:26.821Z,27.80
2019-02-18T23:08:03.819Z,27.60
2019-02-18T23:10:41.562Z,27.90
2019-02-18T23:13:18.421Z,27.80
2019-02-18T23:15:56.525Z,27.90
2019-02-18T23:18:33.526Z,28.00
2019-02-18T23:21:10.522Z,28.10
2019-02-18T23:23:47.910Z,27.90
2019-02-18T23:28:59.359Z,28.20
2019-02-18T23:31:36.313Z,28.00
2019-02-18T23:34:13.569Z,28.10
2019-02-18T23:36:50.523Z,27.80
2019-02-18T23:39:27.395Z,27.70
2019-02-18T23:42:04.288Z,27.60
2019-02-18T23:44:41.373Z,27.40
2019-02-18T23:47:18.377Z,27.40
2019-02-18T23:49:55.329Z,27.30
2019-02-18T23:52:32.217Z,27.10
2019-02-18T23:55:09.346Z,27.10
2019-02-18T23:57:46.397Z,27.10
